sensor_id;sensor_type;location;lat;lon;timestamp;temperature;humidity
44463;DHT22;30170;52.190;8.702;2022-12-18T00:08:41;-11.20;99.90
44463;DHT22;30170;52.190;8.702;2022-12-18T00:11:14;-11.30;99.90
44463;DHT22;30170;52.190;8.702;2022-12-18T00:13:41;-11.30;99.90
44463;DHT22;30170;52.190;8.702;2022-12-18T00:16:14;-11.50;99.90
44463;DHT22;30170;52.190;8.702;2022-12-18T00:18:42;-11.60;99.90
44463;DHT22;30170;52.190;8.702;2022-12-18T00:21:10;-11.70;99.90
44463;DHT22;30170;52.190;8.702;2022-12-18T00:23:39;-11.40;99.90
44463;DHT22;30170;52.190;8.702;2022-12-18T00:26:12;-11.60;99.90
44463;DHT22;30170;52.190;8.702;2022-12-18T00:28:39;-11.60;99.90
44463;DHT22;30170;52.190;8.702;2022-12-18T00:31:09;-11.50;99.90
44463;DHT22;30170;52.190;8.702;2022-12-18T00:33:37;-11.60;99.90
44463;DHT22;30170;52.190;8.702;2022-12-18T00:36:07;-11.70;99.90
44463;DHT22;30170;52.190;8.702;2022-12-18T00:38:36;-11.40;99.90
44463;DHT22;30170;52.190;8.702;2022-12-18T00:41:04;-11.50;99.90
44463;DHT22;30170;52.190;8.702;2022-12-18T00:43:30;-11.10;99.90
44463;DHT22;30170;52.190;8.702;2022-12-18T00:45:57;-11.50;99.90
44463;DHT22;30170;52.190;8.702;2022-12-18T00:48:24;-11.40;99.90
44463;DHT22;30170;52.190;8.702;2022-12-18T00:50:51;-11.50;99.90
44463;DHT22;30170;52.190;8.702;2022-12-18T00:53:18;-11.50;99.90
44463;DHT22;30170;52.190;8.702;2022-12-18T00:55:46;-11.40;99.90
44463;DHT22;30170;52.190;8.702;2022-12-18T00:58:14;-11.70;99.90
44463;DHT22;30170;52.190;8.702;2022-12-18T01:00:42;-11.50;99.90
44463;DHT22;30170;52.190;8.702;2022-12-18T01:03:13;-11.40;99.90
44463;DHT22;30170;52.190;8.702;2022-12-18T01:05:41;-11.20;99.90
44463;DHT22;30170;52.190;8.702;2022-12-18T01:08:08;-11.90;99.90
44463;DHT22;30170;52.190;8.702;2022-12-18T01:10:35;-11.60;99.90
44463;DHT22;30170;52.190;8.702;2022-12-18T01:13:02;-12.30;99.90
44463;DHT22;30170;52.190;8.702;2022-12-18T01:15:29;-11.70;99.90
44463;DHT22;30170;52.190;8.702;2022-12-18T01:17:56;-12.00;99.90
44463;DHT22;30170;52.190;8.702;2022-12-18T01:20:23;-11.70;99.90
44463;DHT22;30170;52.190;8.702;2022-12-18T01:22:50;-11.70;99.90
44463;DHT22;30170;52.190;8.702;2022-12-18T01:25:17;-11.70;99.90
44463;DHT22;30170;52.190;8.702;2022-12-18T01:27:43;-11.80;99.90
44463;DHT22;30170;52.190;8.702;2022-12-18T01:30:11;-11.70;99.90
44463;DHT22;30170;52.190;8.702;2022-12-18T01:32:37;-11.70;99.90
44463;DHT22;30170;52.190;8.702;2022-12-18T01:35:05;-12.00;99.90
44463;DHT22;30170;52.190;8.702;2022-12-18T01:37:32;-11.80;99.90
44463;DHT22;30170;52.190;8.702;2022-12-18T01:39:59;-12.00;99.90
44463;DHT22;30170;52.190;8.702;2022-12-18T01:42:25;-12.00;99.90
44463;DHT22;30170;52.190;8.702;2022-12-18T02:44:13;-11.50;99.90
44463;DHT22;30170;52.190;8.702;2022-12-18T02:46:46;-11.50;99.90
44463;DHT22;30170;52.190;8.702;2022-12-18T02:57:24;-11.80;99.90
44463;DHT22;30170;52.190;8.702;2022-12-18T03:00:08;-11.90;99.90
44463;DHT22;30170;52.190;8.702;2022-12-18T03:02:47;-11.60;99.90
44463;DHT22;30170;52.190;8.702;2022-12-18T03:05:30;-11.70;99.90
44463;DHT22;30170;52.190;8.702;2022-12-18T03:10:40;-11.70;99.90
44463;DHT22;30170;52.190;8.702;2022-12-18T03:13:13;-11.80;99.90
44463;DHT22;30170;52.190;8.702;2022-12-18T03:15:50;-11.90;99.90
44463;DHT22;30170;52.190;8.702;2022-12-18T03:18:42;-11.60;99.90
44463;DHT22;30170;52.190;8.702;2022-12-18T03:21:11;-11.70;99.90
44463;DHT22;30170;52.190;8.702;2022-12-18T03:23:43;-11.70;99.90
44463;DHT22;30170;52.190;8.702;2022-12-18T03:26:14;-11.80;99.90
44463;DHT22;30170;52.190;8.702;2022-12-18T03:28:48;-11.80;99.90
44463;DHT22;30170;52.190;8.702;2022-12-18T03:31:16;-11.40;99.90
44463;DHT22;30170;52.190;8.702;2022-12-18T03:33:52;-12.10;99.90
44463;DHT22;30170;52.190;8.702;2022-12-18T03:36:20;-12.10;99.90
44463;DHT22;30170;52.190;8.702;2022-12-18T03:38:47;-12.10;99.90
44463;DHT22;30170;52.190;8.702;2022-12-18T03:41:43;-12.00;99.90
44463;DHT22;30170;52.190;8.702;2022-12-18T03:47:15;-12.00;99.90
44463;DHT22;30170;52.190;8.702;2022-12-18T03:50:26;-11.80;99.90
44463;DHT22;30170;52.190;8.702;2022-12-18T03:55:24;-11.90;99.90
44463;DHT22;30170;52.190;8.702;2022-12-18T03:57:52;-12.00;99.90
44463;DHT22;30170;52.190;8.702;2022-12-18T04:00:20;-12.20;99.90
44463;DHT22;30170;52.190;8.702;2022-12-18T04:02:56;-12.30;99.90
44463;DHT22;30170;52.190;8.702;2022-12-18T04:05:25;-12.40;99.90
44463;DHT22;30170;52.190;8.702;2022-12-18T04:07:53;-12.40;99.90
44463;DHT22;30170;52.190;8.702;2022-12-18T04:10:21;-12.40;99.90
44463;DHT22;30170;52.190;8.702;2022-12-18T04:12:48;-12.20;99.90
44463;DHT22;30170;52.190;8.702;2022-12-18T06:30:45;-12.50;99.90
44463;DHT22;30170;52.190;8.702;2022-12-18T06:33:12;-12.60;99.90
44463;DHT22;30170;52.190;8.702;2022-12-18T06:35:40;-12.80;99.90
44463;DHT22;30170;52.190;8.702;2022-12-18T06:38:06;-12.70;99.90
44463;DHT22;30170;52.190;8.702;2022-12-18T06:40:33;-12.70;99.90
44463;DHT22;30170;52.190;8.702;2022-12-18T06:43:00;-13.80;99.90
44463;DHT22;30170;52.190;8.702;2022-12-18T06:45:28;-13.10;99.90
44463;DHT22;30170;52.190;8.702;2022-12-18T06:47:55;-12.80;99.90
44463;DHT22;30170;52.190;8.702;2022-12-18T06:50:22;-13.10;99.90
44463;DHT22;30170;52.190;8.702;2022-12-18T06:52:49;-12.90;99.90
44463;DHT22;30170;52.190;8.702;2022-12-18T06:55:16;-13.10;99.90
44463;DHT22;30170;52.190;8.702;2022-12-18T06:57:43;-12.90;99.90
44463;DHT22;30170;52.190;8.702;2022-12-18T07:00:10;-12.90;99.90
44463;DHT22;30170;52.190;8.702;2022-12-18T07:02:37;-12.60;99.90
44463;DHT22;30170;52.190;8.702;2022-12-18T07:05:04;-12.60;99.90
44463;DHT22;30170;52.190;8.702;2022-12-18T07:07:36;-12.30;99.90
44463;DHT22;30170;52.190;8.702;2022-12-18T07:10:04;-12.40;99.90
44463;DHT22;30170;52.190;8.702;2022-12-18T07:12:31;-12.30;99.90
44463;DHT22;30170;52.190;8.702;2022-12-18T07:14:57;-12.50;99.90
44463;DHT22;30170;52.190;8.702;2022-12-18T07:17:24;-12.60;99.90
44463;DHT22;30170;52.190;8.702;2022-12-18T07:19:51;-12.40;99.90
44463;DHT22;30170;52.190;8.702;2022-12-18T07:22:18;-12.50;99.90
44463;DHT22;30170;52.190;8.702;2022-12-18T07:24:44;-12.50;99.90
44463;DHT22;30170;52.190;8.702;2022-12-18T07:27:11;-12.90;99.90
44463;DHT22;30170;52.190;8.702;2022-12-18T07:29:38;-12.70;99.90
44463;DHT22;30170;52.190;8.702;2022-12-18T07:32:05;-12.50;99.90
44463;DHT22;30170;52.190;8.702;2022-12-18T07:34:34;-12.40;99.90
44463;DHT22;30170;52.190;8.702;2022-12-18T07:37:02;-12.30;99.90
44463;DHT22;30170;52.190;8.702;2022-12-18T07:39:29;-12.40;99.90
44463;DHT22;30170;52.190;8.702;2022-12-18T07:41:56;-12.20;99.90
44463;DHT22;30170;52.190;8.702;2022-12-18T07:44:41;-12.30;99.90
44463;DHT22;30170;52.190;8.702;2022-12-18T07:47:08;-12.30;99.90
44463;DHT22;30170;52.190;8.702;2022-12-18T07:49:37;-12.30;99.90
44463;DHT22;30170;52.190;8.702;2022-12-18T07:52:04;-12.30;99.90
44463;DHT22;30170;52.190;8.702;2022-12-18T07:54:31;-12.30;99.90
44463;DHT22;30170;52.190;8.702;2022-12-18T07:56:58;-12.40;99.90
44463;DHT22;30170;52.190;8.702;2022-12-18T07:59:26;-12.30;99.90
44463;DHT22;30170;52.190;8.702;2022-12-18T08:01:52;-12.40;99.90
44463;DHT22;30170;52.190;8.702;2022-12-18T08:04:19;-12.40;99.90
44463;DHT22;30170;52.190;8.702;2022-12-18T08:06:46;-12.10;99.90
44463;DHT22;30170;52.190;8.702;2022-12-18T08:09:14;-12.20;99.90
44463;DHT22;30170;52.190;8.702;2022-12-18T08:11:41;-12.20;99.90
44463;DHT22;30170;52.190;8.702;2022-12-18T08:14:07;-12.00;99.90
44463;DHT22;30170;52.190;8.702;2022-12-18T08:16:34;-12.40;99.90
44463;DHT22;30170;52.190;8.702;2022-12-18T08:19:02;-11.90;99.90
44463;DHT22;30170;52.190;8.702;2022-12-18T08:21:30;-12.20;99.90
44463;DHT22;30170;52.190;8.702;2022-12-18T08:23:59;-12.00;99.90
44463;DHT22;30170;52.190;8.702;2022-12-18T08:26:29;-11.70;99.90
44463;DHT22;30170;52.190;8.702;2022-12-18T08:28:58;-11.70;99.90
44463;DHT22;30170;52.190;8.702;2022-12-18T08:31:26;-11.40;99.90
44463;DHT22;30170;52.190;8.702;2022-12-18T08:33:54;-11.40;99.90
44463;DHT22;30170;52.190;8.702;2022-12-18T08:36:23;-11.00;99.90
44463;DHT22;30170;52.190;8.702;2022-12-18T08:38:51;-11.10;99.90
44463;DHT22;30170;52.190;8.702;2022-12-18T08:41:18;-10.50;99.90
44463;DHT22;30170;52.190;8.702;2022-12-18T08:43:45;-10.40;99.90
44463;DHT22;30170;52.190;8.702;2022-12-18T08:46:48;-9.90;99.90
44463;DHT22;30170;52.190;8.702;2022-12-18T08:49:15;-9.90;99.90
44463;DHT22;30170;52.190;8.702;2022-12-18T08:51:42;-8.30;99.90
44463;DHT22;30170;52.190;8.702;2022-12-18T08:54:11;-8.80;99.90
44463;DHT22;30170;52.190;8.702;2022-12-18T08:56:40;-9.40;99.90
44463;DHT22;30170;52.190;8.702;2022-12-18T08:59:09;-9.20;99.90
44463;DHT22;30170;52.190;8.702;2022-12-18T09:01:45;-9.10;99.90
44463;DHT22;30170;52.190;8.702;2022-12-18T09:04:13;-8.90;99.90
44463;DHT22;30170;52.190;8.702;2022-12-18T09:06:40;-8.80;99.90
44463;DHT22;30170;52.190;8.702;2022-12-18T09:09:09;-8.90;99.90
44463;DHT22;30170;52.190;8.702;2022-12-18T09:11:36;-8.20;99.90
44463;DHT22;30170;52.190;8.702;2022-12-18T09:14:06;-8.00;99.90
44463;DHT22;30170;52.190;8.702;2022-12-18T09:16:33;-7.80;99.90
44463;DHT22;30170;52.190;8.702;2022-12-18T09:19:03;-7.60;99.90
44463;DHT22;30170;52.190;8.702;2022-12-18T09:21:32;-7.40;99.90
44463;DHT22;30170;52.190;8.702;2022-12-18T09:24:03;-7.00;99.90
44463;DHT22;30170;52.190;8.702;2022-12-18T09:31:29;-6.50;99.90
44463;DHT22;30170;52.190;8.702;2022-12-18T09:33:56;-6.20;99.90
44463;DHT22;30170;52.190;8.702;2022-12-18T09:36:23;-6.10;99.90
44463;DHT22;30170;52.190;8.702;2022-12-18T09:38:50;-6.20;99.90
44463;DHT22;30170;52.190;8.702;2022-12-18T09:41:40;-6.00;99.90
44463;DHT22;30170;52.190;8.702;2022-12-18T09:44:30;-5.70;99.90
44463;DHT22;30170;52.190;8.702;2022-12-18T09:47:50;-5.40;99.90
44463;DHT22;30170;52.190;8.702;2022-12-18T09:50:01;-5.10;99.90
44463;DHT22;30170;52.190;8.702;2022-12-18T09:52:55;-5.00;99.90
44463;DHT22;30170;52.190;8.702;2022-12-18T09:55:25;-4.30;99.90
44463;DHT22;30170;52.190;8.702;2022-12-18T09:58:20;-3.80;99.90
44463;DHT22;30170;52.190;8.702;2022-12-18T10:00:54;-2.50;99.90
44463;DHT22;30170;52.190;8.702;2022-12-18T10:03:22;-1.70;99.90
44463;DHT22;30170;52.190;8.702;2022-12-18T10:14:09;0.00;99.90
44463;DHT22;30170;52.190;8.702;2022-12-18T10:19:43;1.20;99.90
44463;DHT22;30170;52.190;8.702;2022-12-18T10:22:29;1.90;99.90
44463;DHT22;30170;52.190;8.702;2022-12-18T10:25:25;2.50;99.90
44463;DHT22;30170;52.190;8.702;2022-12-18T10:27:57;2.70;99.90
44463;DHT22;30170;52.190;8.702;2022-12-18T10:30:25;3.60;99.90
44463;DHT22;30170;52.190;8.702;2022-12-18T10:32:53;3.80;99.90
44463;DHT22;30170;52.190;8.702;2022-12-18T10:35:24;4.80;97.70
44463;DHT22;30170;52.190;8.702;2022-12-18T10:43:21;4.90;92.80
44463;DHT22;30170;52.190;8.702;2022-12-18T10:46:15;4.40;92.60
44463;DHT22;30170;52.190;8.702;2022-12-18T10:51:39;5.00;91.60
44463;DHT22;30170;52.190;8.702;2022-12-18T10:56:39;5.30;89.70
44463;DHT22;30170;52.190;8.702;2022-12-18T10:59:13;5.40;90.00
44463;DHT22;30170;52.190;8.702;2022-12-18T11:01:53;5.70;90.20
44463;DHT22;30170;52.190;8.702;2022-12-18T11:04:30;6.20;87.40
44463;DHT22;30170;52.190;8.702;2022-12-18T11:07:03;6.80;87.10
44463;DHT22;30170;52.190;8.702;2022-12-18T11:09:32;7.70;89.50
44463;DHT22;30170;52.190;8.702;2022-12-18T11:12:02;6.40;86.10
44463;DHT22;30170;52.190;8.702;2022-12-18T11:14:34;6.30;85.70
44463;DHT22;30170;52.190;8.702;2022-12-18T11:17:01;6.70;86.60
44463;DHT22;30170;52.190;8.702;2022-12-18T11:19:55;6.30;88.00
44463;DHT22;30170;52.190;8.702;2022-12-18T11:22:28;5.80;87.70
44463;DHT22;30170;52.190;8.702;2022-12-18T11:24:59;4.90;87.00
44463;DHT22;30170;52.190;8.702;2022-12-18T11:27:56;4.20;89.50
44463;DHT22;30170;52.190;8.702;2022-12-18T11:30:29;3.30;90.00
44463;DHT22;30170;52.190;8.702;2022-12-18T11:33:06;2.90;92.20
44463;DHT22;30170;52.190;8.702;2022-12-18T11:38:15;2.10;92.70
44463;DHT22;30170;52.190;8.702;2022-12-18T11:40:47;1.90;94.10
44463;DHT22;30170;52.190;8.702;2022-12-18T11:43:38;1.60;94.20
44463;DHT22;30170;52.190;8.702;2022-12-18T11:46:12;1.80;94.60
44463;DHT22;30170;52.190;8.702;2022-12-18T11:48:52;1.70;95.90
44463;DHT22;30170;52.190;8.702;2022-12-18T11:51:38;1.70;95.60
44463;DHT22;30170;52.190;8.702;2022-12-18T11:54:13;1.60;95.70
44463;DHT22;30170;52.190;8.702;2022-12-18T11:57:02;1.50;97.30
44463;DHT22;30170;52.190;8.702;2022-12-18T12:11:19;0.80;99.80
44463;DHT22;30170;52.190;8.702;2022-12-18T12:19:36;0.40;99.90
44463;DHT22;30170;52.190;8.702;2022-12-18T12:30:20;0.50;99.90
44463;DHT22;30170;52.190;8.702;2022-12-18T12:33:15;0.40;99.90
44463;DHT22;30170;52.190;8.702;2022-12-18T12:36:02;0.50;99.90
44463;DHT22;30170;52.190;8.702;2022-12-18T12:38:45;0.50;99.90
44463;DHT22;30170;52.190;8.702;2022-12-18T12:41:21;1.60;99.90
44463;DHT22;30170;52.190;8.702;2022-12-18T12:44:17;0.40;99.90
44463;DHT22;30170;52.190;8.702;2022-12-18T12:46:46;1.60;99.90
44463;DHT22;30170;52.190;8.702;2022-12-18T12:49:20;0.60;99.90
44463;DHT22;30170;52.190;8.702;2022-12-18T12:52:12;0.40;99.90
44463;DHT22;30170;52.190;8.702;2022-12-18T12:54:41;0.60;99.90
44463;DHT22;30170;52.190;8.702;2022-12-18T12:57:19;0.60;99.90
44463;DHT22;30170;52.190;8.702;2022-12-18T12:59:58;0.80;99.90
44463;DHT22;30170;52.190;8.702;2022-12-18T13:05:40;0.50;99.90
44463;DHT22;30170;52.190;8.702;2022-12-18T13:08:12;0.50;99.90
44463;DHT22;30170;52.190;8.702;2022-12-18T13:10:49;1.30;99.90
44463;DHT22;30170;52.190;8.702;2022-12-18T13:13:49;0.40;99.90
44463;DHT22;30170;52.190;8.702;2022-12-18T13:16:20;1.40;99.90
44463;DHT22;30170;52.190;8.702;2022-12-18T13:18:55;0.10;99.90
44463;DHT22;30170;52.190;8.702;2022-12-18T13:21:29;0.40;99.90
44463;DHT22;30170;52.190;8.702;2022-12-18T13:24:35;0.30;99.90
44463;DHT22;30170;52.190;8.702;2022-12-18T13:35:51;0.20;99.90
44463;DHT22;30170;52.190;8.702;2022-12-18T13:38:35;0.00;99.90
44463;DHT22;30170;52.190;8.702;2022-12-18T13:41:24;0.10;99.90
44463;DHT22;30170;52.190;8.702;2022-12-18T13:43:57;0.90;99.90
44463;DHT22;30170;52.190;8.702;2022-12-18T13:46:49;0.00;99.90
44463;DHT22;30170;52.190;8.702;2022-12-18T13:52:02;-0.50;99.90
44463;DHT22;30170;52.190;8.702;2022-12-18T13:54:39;0.60;99.90
44463;DHT22;30170;52.190;8.702;2022-12-18T13:57:35;-0.30;99.90
44463;DHT22;30170;52.190;8.702;2022-12-18T14:02:48;-0.10;99.90
44463;DHT22;30170;52.190;8.702;2022-12-18T14:05:43;0.50;99.90
44463;DHT22;30170;52.190;8.702;2022-12-18T14:08:14;-0.40;99.90
44463;DHT22;30170;52.190;8.702;2022-12-18T14:10:44;-0.40;99.90
44463;DHT22;30170;52.190;8.702;2022-12-18T14:13:27;-0.50;99.90
44463;DHT22;30170;52.190;8.702;2022-12-18T14:15:55;-0.20;99.90
44463;DHT22;30170;52.190;8.702;2022-12-18T14:18:52;-0.20;99.90
44463;DHT22;30170;52.190;8.702;2022-12-18T14:21:28;-0.30;99.90
44463;DHT22;30170;52.190;8.702;2022-12-18T14:26:46;-0.30;99.90
44463;DHT22;30170;52.190;8.702;2022-12-18T14:29:25;-0.60;99.90
44463;DHT22;30170;52.190;8.702;2022-12-18T14:32:12;-0.40;99.90
44463;DHT22;30170;52.190;8.702;2022-12-18T14:34:52;-0.40;99.90
44463;DHT22;30170;52.190;8.702;2022-12-18T14:37:23;-0.50;99.90
44463;DHT22;30170;52.190;8.702;2022-12-18T14:40:01;-0.60;99.90
44463;DHT22;30170;52.190;8.702;2022-12-18T14:42:37;0.30;99.90
44463;DHT22;30170;52.190;8.702;2022-12-18T14:48:40;-0.60;99.90
44463;DHT22;30170;52.190;8.702;2022-12-18T14:51:20;-0.60;99.90
44463;DHT22;30170;52.190;8.702;2022-12-18T14:53:58;-0.70;99.90
44463;DHT22;30170;52.190;8.702;2022-12-18T14:56:31;-0.10;99.90
44463;DHT22;30170;52.190;8.702;2022-12-18T14:59:13;-0.70;99.90
44463;DHT22;30170;52.190;8.702;2022-12-18T15:01:59;-0.80;99.90
44463;DHT22;30170;52.190;8.702;2022-12-18T15:04:34;-0.80;99.90
44463;DHT22;30170;52.190;8.702;2022-12-18T15:07:13;-0.80;99.90
44463;DHT22;30170;52.190;8.702;2022-12-18T15:09:42;0.10;99.90
44463;DHT22;30170;52.190;8.702;2022-12-18T15:12:38;-0.90;99.90
44463;DHT22;30170;52.190;8.702;2022-12-18T15:18:21;-0.80;99.90
44463;DHT22;30170;52.190;8.702;2022-12-18T15:23:31;-0.90;99.90
44463;DHT22;30170;52.190;8.702;2022-12-18T15:26:03;-0.80;99.90
44463;DHT22;30170;52.190;8.702;2022-12-18T15:28:38;-0.80;99.90
44463;DHT22;30170;52.190;8.702;2022-12-18T15:33:38;-0.80;99.90
44463;DHT22;30170;52.190;8.702;2022-12-18T15:36:14;-1.10;99.90
44463;DHT22;30170;52.190;8.702;2022-12-18T15:38:47;-0.70;99.90
44463;DHT22;30170;52.190;8.702;2022-12-18T15:41:15;-0.90;99.90
44463;DHT22;30170;52.190;8.702;2022-12-18T15:43:52;0.10;99.90
44463;DHT22;30170;52.190;8.702;2022-12-18T15:46:25;0.20;99.90
44463;DHT22;30170;52.190;8.702;2022-12-18T15:48:54;-0.80;99.90
44463;DHT22;30170;52.190;8.702;2022-12-18T15:51:31;-1.00;99.90
44463;DHT22;30170;52.190;8.702;2022-12-18T15:54:01;-0.90;99.90
44463;DHT22;30170;52.190;8.702;2022-12-18T15:56:30;-0.90;99.90
44463;DHT22;30170;52.190;8.702;2022-12-18T15:59:19;-1.10;99.90
44463;DHT22;30170;52.190;8.702;2022-12-18T16:01:48;-0.20;99.90
44463;DHT22;30170;52.190;8.702;2022-12-18T16:04:17;-0.10;99.90
44463;DHT22;30170;52.190;8.702;2022-12-18T16:06:47;-0.90;99.90
44463;DHT22;30170;52.190;8.702;2022-12-18T16:09:34;-0.90;99.90
44463;DHT22;30170;52.190;8.702;2022-12-18T16:12:01;-0.50;99.90
44463;DHT22;30170;52.190;8.702;2022-12-18T16:14:29;-0.80;99.90
44463;DHT22;30170;52.190;8.702;2022-12-18T16:16:59;-0.90;99.90
44463;DHT22;30170;52.190;8.702;2022-12-18T16:19:26;-1.00;99.90
44463;DHT22;30170;52.190;8.702;2022-12-18T16:21:55;-0.70;99.90
44463;DHT22;30170;52.190;8.702;2022-12-18T16:24:25;-0.80;99.90
44463;DHT22;30170;52.190;8.702;2022-12-18T16:26:53;-0.90;99.90
44463;DHT22;30170;52.190;8.702;2022-12-18T16:29:24;0.60;99.90
44463;DHT22;30170;52.190;8.702;2022-12-18T16:31:59;-0.80;99.90
44463;DHT22;30170;52.190;8.702;2022-12-18T16:34:28;-0.70;99.90
44463;DHT22;30170;52.190;8.702;2022-12-18T16:37:00;-0.90;99.90
44463;DHT22;30170;52.190;8.702;2022-12-18T16:39:32;-0.90;99.90
44463;DHT22;30170;52.190;8.702;2022-12-18T16:42:18;-0.70;99.90
44463;DHT22;30170;52.190;8.702;2022-12-18T16:44:47;-0.40;99.90
44463;DHT22;30170;52.190;8.702;2022-12-18T16:47:14;-0.80;99.90
44463;DHT22;30170;52.190;8.702;2022-12-18T16:49:42;-1.00;99.90
44463;DHT22;30170;52.190;8.702;2022-12-18T16:52:11;-0.80;99.90
44463;DHT22;30170;52.190;8.702;2022-12-18T16:54:38;-0.70;99.90
44463;DHT22;30170;52.190;8.702;2022-12-18T16:57:04;-0.70;99.90
44463;DHT22;30170;52.190;8.702;2022-12-18T16:59:31;-0.70;99.90
44463;DHT22;30170;52.190;8.702;2022-12-18T17:02:02;-0.70;99.90
44463;DHT22;30170;52.190;8.702;2022-12-18T17:04:32;0.50;99.90
44463;DHT22;30170;52.190;8.702;2022-12-18T17:06:59;-0.70;99.90
44463;DHT22;30170;52.190;8.702;2022-12-18T17:09:26;-0.70;99.90
44463;DHT22;30170;52.190;8.702;2022-12-18T17:11:53;-0.70;99.90
44463;DHT22;30170;52.190;8.702;2022-12-18T17:14:22;-0.70;99.90
44463;DHT22;30170;52.190;8.702;2022-12-18T17:16:50;-0.80;99.90
44463;DHT22;30170;52.190;8.702;2022-12-18T17:19:37;-0.70;99.90
44463;DHT22;30170;52.190;8.702;2022-12-18T17:22:04;-0.90;99.90
44463;DHT22;30170;52.190;8.702;2022-12-18T17:24:33;-0.70;99.90
44463;DHT22;30170;52.190;8.702;2022-12-18T17:27:02;-0.90;99.90
44463;DHT22;30170;52.190;8.702;2022-12-18T17:29:29;-0.80;99.90
44463;DHT22;30170;52.190;8.702;2022-12-18T17:31:56;-0.10;99.90
44463;DHT22;30170;52.190;8.702;2022-12-18T17:34:26;-0.60;99.90
44463;DHT22;30170;52.190;8.702;2022-12-18T17:36:53;-0.60;99.90
44463;DHT22;30170;52.190;8.702;2022-12-18T17:39:20;-0.70;99.90
44463;DHT22;30170;52.190;8.702;2022-12-18T17:41:47;-0.50;99.90
44463;DHT22;30170;52.190;8.702;2022-12-18T17:44:14;-0.50;99.90
44463;DHT22;30170;52.190;8.702;2022-12-18T17:46:42;-0.60;99.90
44463;DHT22;30170;52.190;8.702;2022-12-18T17:49:09;-0.50;99.90
44463;DHT22;30170;52.190;8.702;2022-12-18T17:51:36;-0.60;99.90
44463;DHT22;30170;52.190;8.702;2022-12-18T17:54:03;-0.50;99.90
44463;DHT22;30170;52.190;8.702;2022-12-18T17:56:31;-0.40;99.90
44463;DHT22;30170;52.190;8.702;2022-12-18T17:58:58;-0.50;99.90
44463;DHT22;30170;52.190;8.702;2022-12-18T18:01:25;-0.50;99.90
44463;DHT22;30170;52.190;8.702;2022-12-18T18:03:53;-0.50;99.90
44463;DHT22;30170;52.190;8.702;2022-12-18T18:06:23;0.50;99.90
44463;DHT22;30170;52.190;8.702;2022-12-18T18:08:50;-0.40;99.90
44463;DHT22;30170;52.190;8.702;2022-12-18T18:11:19;-0.60;99.90
44463;DHT22;30170;52.190;8.702;2022-12-18T18:14:10;-0.30;99.90
44463;DHT22;30170;52.190;8.702;2022-12-18T18:16:40;-0.30;99.90
44463;DHT22;30170;52.190;8.702;2022-12-18T18:19:09;0.60;99.90
44463;DHT22;30170;52.190;8.702;2022-12-18T18:21:39;-0.40;99.90
44463;DHT22;30170;52.190;8.702;2022-12-18T18:24:07;-0.40;99.90
44463;DHT22;30170;52.190;8.702;2022-12-18T18:26:35;-0.40;99.90
44463;DHT22;30170;52.190;8.702;2022-12-18T18:29:04;0.00;99.90
44463;DHT22;30170;52.190;8.702;2022-12-18T18:31:32;-0.40;99.90
44463;DHT22;30170;52.190;8.702;2022-12-18T18:34:07;-0.40;99.90
44463;DHT22;30170;52.190;8.702;2022-12-18T18:36:37;-0.50;99.90
44463;DHT22;30170;52.190;8.702;2022-12-18T18:39:03;-0.40;99.90
44463;DHT22;30170;52.190;8.702;2022-12-18T18:41:30;-0.40;99.90
44463;DHT22;30170;52.190;8.702;2022-12-18T18:43:57;-0.60;99.90
44463;DHT22;30170;52.190;8.702;2022-12-18T18:46:24;-1.00;99.90
44463;DHT22;30170;52.190;8.702;2022-12-18T18:48:55;-0.40;99.90
44463;DHT22;30170;52.190;8.702;2022-12-18T18:51:22;-0.40;99.90
44463;DHT22;30170;52.190;8.702;2022-12-18T18:53:51;-0.40;99.90
44463;DHT22;30170;52.190;8.702;2022-12-18T18:56:20;-0.60;99.90
44463;DHT22;30170;52.190;8.702;2022-12-18T18:59:07;-0.60;99.90
44463;DHT22;30170;52.190;8.702;2022-12-18T19:01:34;-0.40;99.90
44463;DHT22;30170;52.190;8.702;2022-12-18T19:04:01;-0.50;99.90
44463;DHT22;30170;52.190;8.702;2022-12-18T19:06:28;-0.10;99.90
44463;DHT22;30170;52.190;8.702;2022-12-18T19:08:56;-0.50;99.90
44463;DHT22;30170;52.190;8.702;2022-12-18T19:11:24;-0.50;99.90
44463;DHT22;30170;52.190;8.702;2022-12-18T19:14:14;-0.50;99.90
44463;DHT22;30170;52.190;8.702;2022-12-18T19:16:41;-0.50;99.90
44463;DHT22;30170;52.190;8.702;2022-12-18T19:19:09;0.50;99.90
44463;DHT22;30170;52.190;8.702;2022-12-18T19:21:36;-0.50;99.90
44463;DHT22;30170;52.190;8.702;2022-12-18T19:24:04;-0.50;99.90
44463;DHT22;30170;52.190;8.702;2022-12-18T19:26:31;-0.70;99.90
44463;DHT22;30170;52.190;8.702;2022-12-18T19:29:02;-0.60;99.90
44463;DHT22;30170;52.190;8.702;2022-12-18T19:31:30;-0.80;99.90
44463;DHT22;30170;52.190;8.702;2022-12-18T19:34:02;-0.80;99.90
44463;DHT22;30170;52.190;8.702;2022-12-18T19:36:31;-0.60;99.90
44463;DHT22;30170;52.190;8.702;2022-12-18T19:38:59;-0.70;99.90
44463;DHT22;30170;52.190;8.702;2022-12-18T19:41:27;-0.60;99.90
44463;DHT22;30170;52.190;8.702;2022-12-18T19:43:58;-0.60;99.90
44463;DHT22;30170;52.190;8.702;2022-12-18T19:46:27;-0.50;99.90
44463;DHT22;30170;52.190;8.702;2022-12-18T19:48:54;-1.40;99.90
44463;DHT22;30170;52.190;8.702;2022-12-18T19:51:26;-0.60;99.90
44463;DHT22;30170;52.190;8.702;2022-12-18T19:53:54;-0.20;99.90
44463;DHT22;30170;52.190;8.702;2022-12-18T19:56:27;0.50;99.90
44463;DHT22;30170;52.190;8.702;2022-12-18T19:58:54;-0.70;99.90
44463;DHT22;30170;52.190;8.702;2022-12-18T20:01:22;-0.80;99.90
44463;DHT22;30170;52.190;8.702;2022-12-18T20:03:50;-0.80;99.90
44463;DHT22;30170;52.190;8.702;2022-12-18T20:06:35;-0.70;99.90
44463;DHT22;30170;52.190;8.702;2022-12-18T20:09:10;-0.40;99.90
44463;DHT22;30170;52.190;8.702;2022-12-18T20:11:37;-0.60;99.90
44463;DHT22;30170;52.190;8.702;2022-12-18T20:14:11;-0.70;99.90
44463;DHT22;30170;52.190;8.702;2022-12-18T20:16:38;-0.60;99.90
44463;DHT22;30170;52.190;8.702;2022-12-18T20:19:06;-0.70;99.90
44463;DHT22;30170;52.190;8.702;2022-12-18T20:21:33;-0.40;99.90
44463;DHT22;30170;52.190;8.702;2022-12-18T20:24:06;-0.70;99.90
44463;DHT22;30170;52.190;8.702;2022-12-18T20:26:34;-0.70;99.90
44463;DHT22;30170;52.190;8.702;2022-12-18T20:29:00;-0.70;99.90
44463;DHT22;30170;52.190;8.702;2022-12-18T20:31:27;-0.70;99.90
44463;DHT22;30170;52.190;8.702;2022-12-18T20:33:55;-0.60;99.90
44463;DHT22;30170;52.190;8.702;2022-12-18T20:36:26;-0.60;99.90
44463;DHT22;30170;52.190;8.702;2022-12-18T20:38:53;-0.60;99.90
44463;DHT22;30170;52.190;8.702;2022-12-18T20:41:26;-0.70;99.90
44463;DHT22;30170;52.190;8.702;2022-12-18T20:44:08;-0.60;99.90
44463;DHT22;30170;52.190;8.702;2022-12-18T20:46:50;-0.50;99.90
44463;DHT22;30170;52.190;8.702;2022-12-18T20:49:17;-0.10;99.90
44463;DHT22;30170;52.190;8.702;2022-12-18T20:51:44;-0.50;99.90
44463;DHT22;30170;52.190;8.702;2022-12-18T20:54:11;-0.80;99.90
44463;DHT22;30170;52.190;8.702;2022-12-18T20:56:38;-0.60;99.90
44463;DHT22;30170;52.190;8.702;2022-12-18T20:59:05;-0.60;99.90
44463;DHT22;30170;52.190;8.702;2022-12-18T21:01:32;-0.60;99.90
44463;DHT22;30170;52.190;8.702;2022-12-18T21:04:00;-0.60;99.90
44463;DHT22;30170;52.190;8.702;2022-12-18T21:06:27;-0.70;99.90